sensor_id;sensor_type;location;lat;lon;timestamp;pressure;altitude;pressure_sealevel;temperature;humidity
21902;BME280;11115;46.038;14.612;2023-09-19T00:01:14;98029.97;;;19.02;100.00
21902;BME280;11115;46.038;14.612;2023-09-19T00:03:49;98026.38;;;19.01;100.00
21902;BME280;11115;46.038;14.612;2023-09-19T00:06:22;98008.94;;;18.89;100.00
21902;BME280;11115;46.038;14.612;2023-09-19T00:09:03;98022.38;;;19.02;100.00
21902;BME280;11115;46.038;14.612;2023-09-19T00:11:54;98022.75;;;19.01;100.00
21902;BME280;11115;46.038;14.612;2023-09-19T00:14:44;98023.06;;;18.96;100.00
21902;BME280;11115;46.038;14.612;2023-09-19T00:17:27;98032.66;;;18.95;100.00
21902;BME280;11115;46.038;14.612;2023-09-19T00:20:09;98036.28;;;18.95;100.00
21902;BME280;11115;46.038;14.612;2023-09-19T00:22:58;98027.59;;;19.04;100.00
21902;BME280;11115;46.038;14.612;2023-09-19T00:25:40;98027.06;;;18.95;100.00
21902;BME280;11115;46.038;14.612;2023-09-19T00:28:11;98018.53;;;18.88;100.00
21902;BME280;11115;46.038;14.612;2023-09-19T00:30:44;98018.84;;;18.83;100.00
21902;BME280;11115;46.038;14.612;2023-09-19T00:33:32;98021.69;;;18.86;100.00
21902;BME280;11115;46.038;14.612;2023-09-19T00:36:06;98031.22;;;18.82;100.00
21902;BME280;11115;46.038;14.612;2023-09-19T00:38:37;98013.19;;;18.79;100.00
21902;BME280;11115;46.038;14.612;2023-09-19T00:41:23;98005.16;;;18.77;100.00
21902;BME280;11115;46.038;14.612;2023-09-19T00:43:56;98011.38;;;18.67;100.00
21902;BME280;11115;46.038;14.612;2023-09-19T00:46:28;98024.78;;;18.77;100.00
21902;BME280;11115;46.038;14.612;2023-09-19T00:49:02;98030.19;;;18.90;100.00
21902;BME280;11115;46.038;14.612;2023-09-19T00:51:36;98034.41;;;18.80;100.00
21902;BME280;11115;46.038;14.612;2023-09-19T00:54:17;98023.16;;;18.76;100.00
21902;BME280;11115;46.038;14.612;2023-09-19T00:56:50;98022.44;;;18.83;100.00
21902;BME280;11115;46.038;14.612;2023-09-19T00:59:27;98017.97;;;18.78;100.00
21902;BME280;11115;46.038;14.612;2023-09-19T01:01:57;98018.72;;;18.75;100.00
21902;BME280;11115;46.038;14.612;2023-09-19T01:04:40;98020.47;;;18.84;100.00
21902;BME280;11115;46.038;14.612;2023-09-19T01:07:12;97997.38;;;18.67;100.00
21902;BME280;11115;46.038;14.612;2023-09-19T01:09:54;98014.69;;;18.73;100.00
21902;BME280;11115;46.038;14.612;2023-09-19T01:12:47;98017.59;;;18.80;100.00
21902;BME280;11115;46.038;14.612;2023-09-19T01:18:55;98019.31;;;18.88;100.00
21902;BME280;11115;46.038;14.612;2023-09-19T01:30:58;98020.88;;;18.86;100.00
21902;BME280;11115;46.038;14.612;2023-09-19T01:33:59;98024.94;;;18.88;100.00
21902;BME280;11115;46.038;14.612;2023-09-19T01:36:32;98030.81;;;18.79;100.00
21902;BME280;11115;46.038;14.612;2023-09-19T01:39:14;98036.91;;;18.85;100.00
21902;BME280;11115;46.038;14.612;2023-09-19T01:44:51;98036.91;;;18.85;100.00
21902;BME280;11115;46.038;14.612;2023-09-19T01:47:54;98025.69;;;18.85;100.00
21902;BME280;11115;46.038;14.612;2023-09-19T01:50:59;98025.63;;;18.82;100.00
21902;BME280;11115;46.038;14.612;2023-09-19T01:53:57;98021.69;;;18.86;100.00
21902;BME280;11115;46.038;14.612;2023-09-19T01:57:04;98038.78;;;18.77;100.00
21902;BME280;11115;46.038;14.612;2023-09-19T01:59:52;98034.03;;;18.82;100.00
21902;BME280;11115;46.038;14.612;2023-09-19T02:02:25;98036.22;;;18.69;100.00
21902;BME280;11115;46.038;14.612;2023-09-19T02:05:05;98009.47;;;18.71;100.00
21902;BME280;11115;46.038;14.612;2023-09-19T02:07:36;98003.53;;;18.76;100.00
21902;BME280;11115;46.038;14.612;2023-09-19T02:10:08;98020.28;;;18.73;100.00
21902;BME280;11115;46.038;14.612;2023-09-19T02:12:44;98028.31;;;18.74;100.00
21902;BME280;11115;46.038;14.612;2023-09-19T02:15:31;98033.50;;;18.72;100.00
21902;BME280;11115;46.038;14.612;2023-09-19T02:18:04;98017.50;;;18.73;100.00
21902;BME280;11115;46.038;14.612;2023-09-19T02:20:35;98027.94;;;18.76;100.00
21902;BME280;11115;46.038;14.612;2023-09-19T02:23:14;98023.59;;;18.78;100.00
21902;BME280;11115;46.038;14.612;2023-09-19T02:25:54;98030.25;;;18.70;100.00
21902;BME280;11115;46.038;14.612;2023-09-19T02:28:36;98022.19;;;18.69;100.00
21902;BME280;11115;46.038;14.612;2023-09-19T02:31:10;98030.38;;;18.77;100.00
21902;BME280;11115;46.038;14.612;2023-09-19T02:33:41;98029.88;;;18.72;100.00
21902;BME280;11115;46.038;14.612;2023-09-19T02:36:17;98033.88;;;18.71;100.00
21902;BME280;11115;46.038;14.612;2023-09-19T02:38:46;98036.28;;;18.72;100.00
21902;BME280;11115;46.038;14.612;2023-09-19T02:41:30;98029.38;;;18.66;100.00
21902;BME280;11115;46.038;14.612;2023-09-19T02:44:01;98035.09;;;18.73;100.00
21902;BME280;11115;46.038;14.612;2023-09-19T02:46:38;98028.03;;;18.60;100.00
21902;BME280;11115;46.038;14.612;2023-09-19T02:49:10;98042.63;;;18.69;100.00
21902;BME280;11115;46.038;14.612;2023-09-19T02:51:45;98045.88;;;18.71;100.00
21902;BME280;11115;46.038;14.612;2023-09-19T02:54:22;98039.81;;;18.69;100.00
21902;BME280;11115;46.038;14.612;2023-09-19T02:56:58;98039.38;;;18.67;100.00
21902;BME280;11115;46.038;14.612;2023-09-19T02:59:38;98044.75;;;18.76;100.00
21902;BME280;11115;46.038;14.612;2023-09-19T03:02:31;98044.69;;;18.72;100.00
21902;BME280;11115;46.038;14.612;2023-09-19T03:05:07;98029.94;;;18.75;100.00
21902;BME280;11115;46.038;14.612;2023-09-19T03:07:39;98028.75;;;18.76;100.00
21902;BME280;11115;46.038;14.612;2023-09-19T03:10:15;98037.53;;;18.75;100.00
21902;BME280;11115;46.038;14.612;2023-09-19T03:12:50;98035.09;;;18.73;100.00
21902;BME280;11115;46.038;14.612;2023-09-19T03:15:26;98035.88;;;18.70;100.00
21902;BME280;11115;46.038;14.612;2023-09-19T03:17:58;98054.34;;;18.75;100.00
21902;BME280;11115;46.038;14.612;2023-09-19T03:20:32;98041.38;;;18.67;100.00
21902;BME280;11115;46.038;14.612;2023-09-19T03:23:22;98046.97;;;18.67;100.00
21902;BME280;11115;46.038;14.612;2023-09-19T03:25:56;98049.56;;;18.75;100.00
21902;BME280;11115;46.038;14.612;2023-09-19T03:28:29;98055.91;;;18.72;100.00
21902;BME280;11115;46.038;14.612;2023-09-19T03:31:05;98044.84;;;18.60;100.00
21902;BME280;11115;46.038;14.612;2023-09-19T03:33:37;98072.41;;;18.58;100.00
21902;BME280;11115;46.038;14.612;2023-09-19T03:36:32;98071.75;;;18.65;100.00
21902;BME280;11115;46.038;14.612;2023-09-19T03:39:04;98074.34;;;18.73;100.00
21902;BME280;11115;46.038;14.612;2023-09-19T03:41:41;98071.16;;;18.75;100.00
21902;BME280;11115;46.038;14.612;2023-09-19T03:44:14;98062.81;;;18.78;100.00
21902;BME280;11115;46.038;14.612;2023-09-19T03:46:46;98053.09;;;18.72;100.00
21902;BME280;11115;46.038;14.612;2023-09-19T03:49:34;98070.47;;;18.82;100.00
21902;BME280;11115;46.038;14.612;2023-09-19T03:52:06;98068.91;;;18.84;100.00
21902;BME280;11115;46.038;14.612;2023-09-19T03:54:48;98067.28;;;18.83;100.00
21902;BME280;11115;46.038;14.612;2023-09-19T03:57:23;98066.47;;;18.83;100.00
21902;BME280;11115;46.038;14.612;2023-09-19T04:00:10;98073.22;;;18.78;100.00
21902;BME280;11115;46.038;14.612;2023-09-19T04:02:51;98079.63;;;18.78;100.00
21902;BME280;11115;46.038;14.612;2023-09-19T04:05:21;98074.06;;;18.82;100.00
21902;BME280;11115;46.038;14.612;2023-09-19T04:07:51;98067.69;;;18.62;100.00
21902;BME280;11115;46.038;14.612;2023-09-19T04:10:25;98086.41;;;18.77;100.00
21902;BME280;11115;46.038;14.612;2023-09-19T04:13:03;98086.03;;;18.79;100.00
21902;BME280;11115;46.038;14.612;2023-09-19T04:15:53;98083.03;;;18.68;100.00
21902;BME280;11115;46.038;14.612;2023-09-19T04:18:29;98089.81;;;18.67;100.00
21902;BME280;11115;46.038;14.612;2023-09-19T04:21:20;98091.28;;;18.61;100.00
21902;BME280;11115;46.038;14.612;2023-09-19T04:23:58;98109.22;;;18.57;100.00
21902;BME280;11115;46.038;14.612;2023-09-19T04:26:36;98087.56;;;18.34;100.00
21902;BME280;11115;46.038;14.612;2023-09-19T04:29:11;98110.66;;;18.50;100.00
21902;BME280;11115;46.038;14.612;2023-09-19T04:31:44;98103.53;;;18.53;100.00
21902;BME280;11115;46.038;14.612;2023-09-19T04:34:13;98104.88;;;18.40;100.00
21902;BME280;11115;46.038;14.612;2023-09-19T04:36:45;98118.28;;;18.31;100.00
21902;BME280;11115;46.038;14.612;2023-09-19T04:39:16;98097.50;;;18.12;100.00
21902;BME280;11115;46.038;14.612;2023-09-19T04:41:48;98105.44;;;18.30;100.00
21902;BME280;11115;46.038;14.612;2023-09-19T04:44:23;98114.03;;;18.17;100.00
21902;BME280;11115;46.038;14.612;2023-09-19T04:47:01;98129.78;;;18.26;100.00
21902;BME280;11115;46.038;14.612;2023-09-19T04:49:45;98132.94;;;18.24;100.00
21902;BME280;11115;46.038;14.612;2023-09-19T04:52:17;98129.03;;;18.29;100.00
21902;BME280;11115;46.038;14.612;2023-09-19T04:54:56;98130.50;;;18.23;100.00
21902;BME280;11115;46.038;14.612;2023-09-19T04:57:35;98125.84;;;18.11;100.00
21902;BME280;11115;46.038;14.612;2023-09-19T05:00:20;98143.25;;;18.01;100.00
21902;BME280;11115;46.038;14.612;2023-09-19T05:02:52;98129.56;;;17.96;100.00
21902;BME280;11115;46.038;14.612;2023-09-19T05:05:23;98160.03;;;18.01;100.00
21902;BME280;11115;46.038;14.612;2023-09-19T05:08:04;98185.59;;;17.99;100.00
21902;BME280;11115;46.038;14.612;2023-09-19T05:10:42;98193.06;;;17.76;100.00
21902;BME280;11115;46.038;14.612;2023-09-19T05:13:15;98204.13;;;17.88;100.00
21902;BME280;11115;46.038;14.612;2023-09-19T05:16:01;98204.88;;;17.69;100.00
21902;BME280;11115;46.038;14.612;2023-09-19T05:18:35;98182.81;;;17.52;100.00
21902;BME280;11115;46.038;14.612;2023-09-19T05:21:12;98172.19;;;17.57;100.00
21902;BME280;11115;46.038;14.612;2023-09-19T05:23:55;98180.66;;;17.61;100.00
21902;BME280;11115;46.038;14.612;2023-09-19T05:26:56;98171.56;;;17.48;100.00
21902;BME280;11115;46.038;14.612;2023-09-19T05:29:28;98164.44;;;17.51;100.00
21902;BME280;11115;46.038;14.612;2023-09-19T05:32:05;98177.34;;;17.55;100.00
21902;BME280;11115;46.038;14.612;2023-09-19T05:34:40;98176.91;;;17.38;100.00
21902;BME280;11115;46.038;14.612;2023-09-19T05:37:23;98196.84;;;17.36;100.00
21902;BME280;11115;46.038;14.612;2023-09-19T05:39:57;98199.88;;;17.31;100.00
21902;BME280;11115;46.038;14.612;2023-09-19T05:42:36;98185.28;;;17.22;100.00
21902;BME280;11115;46.038;14.612;2023-09-19T05:45:11;98180.75;;;17.33;100.00
21902;BME280;11115;46.038;14.612;2023-09-19T05:47:46;98194.56;;;17.42;100.00
21902;BME280;11115;46.038;14.612;2023-09-19T05:50:50;98222.72;;;17.49;100.00
21902;BME280;11115;46.038;14.612;2023-09-19T05:53:32;98237.69;;;17.41;100.00
21902;BME280;11115;46.038;14.612;2023-09-19T05:56:08;98252.19;;;17.30;100.00
21902;BME280;11115;46.038;14.612;2023-09-19T05:58:49;98263.34;;;17.15;100.00
21902;BME280;11115;46.038;14.612;2023-09-19T06:01:21;98265.44;;;17.18;100.00
21902;BME280;11115;46.038;14.612;2023-09-19T06:03:54;98272.19;;;17.17;100.00
21902;BME280;11115;46.038;14.612;2023-09-19T06:06:29;98261.53;;;17.07;100.00
21902;BME280;11115;46.038;14.612;2023-09-19T06:08:59;98270.75;;;17.23;100.00
21902;BME280;11115;46.038;14.612;2023-09-19T06:11:30;98260.75;;;17.22;100.00
21902;BME280;11115;46.038;14.612;2023-09-19T06:14:05;98268.16;;;17.30;100.00
21902;BME280;11115;46.038;14.612;2023-09-19T06:16:33;98272.13;;;17.29;100.00
21902;BME280;11115;46.038;14.612;2023-09-19T06:19:05;98275.44;;;17.35;100.00
21902;BME280;11115;46.038;14.612;2023-09-19T06:21:44;98277.91;;;17.36;100.00
21902;BME280;11115;46.038;14.612;2023-09-19T06:24:21;98269.25;;;17.41;100.00
21902;BME280;11115;46.038;14.612;2023-09-19T06:26:53;98266.53;;;17.29;100.00
21902;BME280;11115;46.038;14.612;2023-09-19T06:29:25;98262.19;;;17.32;100.00
21902;BME280;11115;46.038;14.612;2023-09-19T06:32:09;98274.19;;;17.32;100.00
21902;BME280;11115;46.038;14.612;2023-09-19T06:34:40;98281.72;;;17.16;100.00
21902;BME280;11115;46.038;14.612;2023-09-19T06:37:22;98298.16;;;17.17;100.00
21902;BME280;11115;46.038;14.612;2023-09-19T06:40:04;98295.59;;;17.12;100.00
21902;BME280;11115;46.038;14.612;2023-09-19T06:42:32;98309.84;;;17.07;100.00
21902;BME280;11115;46.038;14.612;2023-09-19T06:45:17;98295.16;;;17.10;100.00
21902;BME280;11115;46.038;14.612;2023-09-19T06:48:18;98301.78;;;17.34;100.00
21902;BME280;11115;46.038;14.612;2023-09-19T06:50:53;98300.19;;;17.48;100.00
21902;BME280;11115;46.038;14.612;2023-09-19T06:53:24;98308.19;;;17.34;100.00
21902;BME280;11115;46.038;14.612;2023-09-19T06:55:55;98314.44;;;17.43;100.00
21902;BME280;11115;46.038;14.612;2023-09-19T06:58:33;98322.97;;;17.35;100.00
21902;BME280;11115;46.038;14.612;2023-09-19T07:01:06;98333.13;;;17.39;100.00
21902;BME280;11115;46.038;14.612;2023-09-19T07:03:43;98334.28;;;17.38;100.00
21902;BME280;11115;46.038;14.612;2023-09-19T07:06:16;98350.09;;;17.46;100.00
21902;BME280;11115;46.038;14.612;2023-09-19T07:08:46;98345.03;;;17.36;100.00
21902;BME280;11115;46.038;14.612;2023-09-19T07:11:17;98316.22;;;17.20;100.00
21902;BME280;11115;46.038;14.612;2023-09-19T07:14:12;98337.59;;;17.28;100.00
21902;BME280;11115;46.038;14.612;2023-09-19T07:16:58;98339.56;;;17.27;100.00
21902;BME280;11115;46.038;14.612;2023-09-19T07:19:34;98351.16;;;17.42;100.00
21902;BME280;11115;46.038;14.612;2023-09-19T07:22:07;98349.19;;;17.42;100.00
21902;BME280;11115;46.038;14.612;2023-09-19T07:24:50;98343.03;;;17.37;100.00
21902;BME280;11115;46.038;14.612;2023-09-19T07:27:24;98351.44;;;17.37;100.00
21902;BME280;11115;46.038;14.612;2023-09-19T07:29:55;98366.09;;;17.34;100.00
21902;BME280;11115;46.038;14.612;2023-09-19T07:32:26;98370.69;;;17.26;100.00
21902;BME280;11115;46.038;14.612;2023-09-19T07:34:58;98366.53;;;17.20;100.00
21902;BME280;11115;46.038;14.612;2023-09-19T07:37:42;98366.00;;;17.30;100.00
21902;BME280;11115;46.038;14.612;2023-09-19T07:40:19;98366.22;;;17.37;100.00
21902;BME280;11115;46.038;14.612;2023-09-19T07:43:04;98374.75;;;17.28;100.00
21902;BME280;11115;46.038;14.612;2023-09-19T07:45:36;98384.03;;;17.33;100.00
21902;BME280;11115;46.038;14.612;2023-09-19T07:48:07;98397.34;;;17.36;100.00
21902;BME280;11115;46.038;14.612;2023-09-19T07:50:41;98406.72;;;17.43;100.00
21902;BME280;11115;46.038;14.612;2023-09-19T07:53:17;98402.69;;;17.28;100.00
21902;BME280;11115;46.038;14.612;2023-09-19T07:56:06;98415.72;;;17.37;100.00
21902;BME280;11115;46.038;14.612;2023-09-19T07:58:35;98426.44;;;17.35;100.00
21902;BME280;11115;46.038;14.612;2023-09-19T08:01:10;98433.06;;;17.42;100.00
21902;BME280;11115;46.038;14.612;2023-09-19T08:03:45;98411.88;;;17.41;100.00
21902;BME280;11115;46.038;14.612;2023-09-19T08:06:19;98427.56;;;17.46;100.00
21902;BME280;11115;46.038;14.612;2023-09-19T08:08:52;98433.78;;;17.39;100.00
21902;BME280;11115;46.038;14.612;2023-09-19T08:11:33;98435.25;;;17.49;100.00
21902;BME280;11115;46.038;14.612;2023-09-19T08:14:16;98435.06;;;17.42;100.00
21902;BME280;11115;46.038;14.612;2023-09-19T08:17:00;98428.31;;;17.30;100.00
21902;BME280;11115;46.038;14.612;2023-09-19T08:19:35;98438.44;;;17.35;100.00
21902;BME280;11115;46.038;14.612;2023-09-19T08:22:13;98454.47;;;17.50;100.00
21902;BME280;11115;46.038;14.612;2023-09-19T08:24:50;98460.56;;;17.40;100.00
21902;BME280;11115;46.038;14.612;2023-09-19T08:27:32;98468.97;;;17.40;100.00
21902;BME280;11115;46.038;14.612;2023-09-19T08:30:04;98465.00;;;17.41;100.00
21902;BME280;11115;46.038;14.612;2023-09-19T08:32:57;98465.72;;;17.38;100.00
21902;BME280;11115;46.038;14.612;2023-09-19T08:35:32;98476.44;;;17.36;100.00
21902;BME280;11115;46.038;14.612;2023-09-19T08:38:09;98488.06;;;17.38;100.00
21902;BME280;11115;46.038;14.612;2023-09-19T08:40:48;98495.53;;;17.34;100.00
21902;BME280;11115;46.038;14.612;2023-09-19T08:43:26;98487.38;;;17.41;100.00
21902;BME280;11115;46.038;14.612;2023-09-19T08:46:15;98468.16;;;17.27;100.00
21902;BME280;11115;46.038;14.612;2023-09-19T08:49:08;98475.25;;;17.37;100.00
21902;BME280;11115;46.038;14.612;2023-09-19T08:51:45;98442.22;;;17.15;100.00
21902;BME280;11115;46.038;14.612;2023-09-19T08:54:25;98484.78;;;17.48;100.00
21902;BME280;11115;46.038;14.612;2023-09-19T08:57:08;98475.22;;;17.49;100.00
21902;BME280;11115;46.038;14.612;2023-09-19T08:59:53;98482.22;;;17.43;100.00
21902;BME280;11115;46.038;14.612;2023-09-19T09:02:23;98477.09;;;17.45;100.00
21902;BME280;11115;46.038;14.612;2023-09-19T09:04:56;98480.69;;;17.46;100.00
21902;BME280;11115;46.038;14.612;2023-09-19T09:07:29;98481.06;;;17.44;100.00
21902;BME280;11115;46.038;14.612;2023-09-19T09:10:02;98490.16;;;17.41;100.00
21902;BME280;11115;46.038;14.612;2023-09-19T09:12:41;98494.25;;;17.32;100.00
21902;BME280;11115;46.038;14.612;2023-09-19T09:15:11;98484.69;;;17.33;100.00
21902;BME280;11115;46.038;14.612;2023-09-19T09:17:48;98489.66;;;17.51;100.00
21902;BME280;11115;46.038;14.612;2023-09-19T09:20:21;98459.41;;;17.41;100.00
21902;BME280;11115;46.038;14.612;2023-09-19T09:23:01;98467.72;;;17.53;100.00
21902;BME280;11115;46.038;14.612;2023-09-19T09:25:50;98464.94;;;17.53;100.00
21902;BME280;11115;46.038;14.612;2023-09-19T09:28:28;98474.28;;;17.45;100.00
21902;BME280;11115;46.038;14.612;2023-09-19T09:30:58;98488.06;;;17.38;100.00
21902;BME280;11115;46.038;14.612;2023-09-19T09:33:37;98501.19;;;17.50;100.00
21902;BME280;11115;46.038;14.612;2023-09-19T09:36:11;98492.00;;;17.49;100.00
21902;BME280;11115;46.038;14.612;2023-09-19T09:38:45;98484.38;;;17.62;100.00
21902;BME280;11115;46.038;14.612;2023-09-19T09:41:36;98498.81;;;17.36;100.00
21902;BME280;11115;46.038;14.612;2023-09-19T09:44:17;98505.22;;;17.37;100.00
21902;BME280;11115;46.038;14.612;2023-09-19T09:46:50;98499.56;;;17.49;100.00
21902;BME280;11115;46.038;14.612;2023-09-19T09:49:31;98501.91;;;17.47;100.00
21902;BME280;11115;46.038;14.612;2023-09-19T09:52:09;98495.66;;;17.38;100.00
21902;BME280;11115;46.038;14.612;2023-09-19T09:54:59;98506.44;;;17.51;100.00
21902;BME280;11115;46.038;14.612;2023-09-19T09:57:43;98495.97;;;17.48;100.00
21902;BME280;11115;46.038;14.612;2023-09-19T10:00:15;98508.38;;;17.63;100.00
21902;BME280;11115;46.038;14.612;2023-09-19T10:02:50;98517.81;;;17.71;100.00
21902;BME280;11115;46.038;14.612;2023-09-19T10:05:28;98515.03;;;17.71;100.00
21902;BME280;11115;46.038;14.612;2023-09-19T10:08:10;98512.50;;;17.94;100.00
21902;BME280;11115;46.038;14.612;2023-09-19T10:10:50;98507.81;;;17.98;100.00
21902;BME280;11115;46.038;14.612;2023-09-19T10:13:36;98511.66;;;17.93;100.00
21902;BME280;11115;46.038;14.612;2023-09-19T10:16:15;98517.38;;;17.97;100.00
21902;BME280;11115;46.038;14.612;2023-09-19T10:18:48;98520.31;;;17.88;100.00
21902;BME280;11115;46.038;14.612;2023-09-19T10:21:25;98521.41;;;17.83;100.00
21902;BME280;11115;46.038;14.612;2023-09-19T10:24:03;98519.00;;;17.98;100.00
21902;BME280;11115;46.038;14.612;2023-09-19T10:26:39;98522.44;;;18.07;100.00
21902;BME280;11115;46.038;14.612;2023-09-19T10:29:13;98524.16;;;17.96;100.00
21902;BME280;11115;46.038;14.612;2023-09-19T10:31:58;98526.50;;;17.94;100.00
21902;BME280;11115;46.038;14.612;2023-09-19T10:34:46;98522.34;;;18.03;100.00
21902;BME280;11115;46.038;14.612;2023-09-19T10:37:20;98464.66;;;17.71;100.00
21902;BME280;11115;46.038;14.612;2023-09-19T10:39:56;98513.91;;;18.31;100.00
21902;BME280;11115;46.038;14.612;2023-09-19T10:42:38;98519.63;;;18.35;100.00
21902;BME280;11115;46.038;14.612;2023-09-19T10:45:19;98458.50;;;18.09;100.00
21902;BME280;11115;46.038;14.612;2023-09-19T10:47:58;98502.72;;;18.47;100.00
21902;BME280;11115;46.038;14.612;2023-09-19T10:50:41;98500.22;;;18.58;100.00
21902;BME280;11115;46.038;14.612;2023-09-19T10:53:14;98491.09;;;18.76;100.00
21902;BME280;11115;46.038;14.612;2023-09-19T10:55:53;98486.19;;;18.89;100.00
21902;BME280;11115;46.038;14.612;2023-09-19T10:58:29;98494.28;;;19.45;100.00
21902;BME280;11115;46.038;14.612;2023-09-19T11:01:11;98488.19;;;19.24;100.00
21902;BME280;11115;46.038;14.612;2023-09-19T11:03:44;98475.63;;;19.33;100.00
21902;BME280;11115;46.038;14.612;2023-09-19T11:06:17;98469.72;;;19.03;100.00
21902;BME280;11115;46.038;14.612;2023-09-19T11:09:08;98472.94;;;19.21;100.00
21902;BME280;11115;46.038;14.612;2023-09-19T11:11:55;98472.88;;;19.37;100.00
21902;BME280;11115;46.038;14.612;2023-09-19T11:14:41;98485.88;;;19.45;100.00
21902;BME280;11115;46.038;14.612;2023-09-19T11:23:19;98482.84;;;19.34;100.00
21902;BME280;11115;46.038;14.612;2023-09-19T11:25:59;98472.13;;;19.56;100.00
21902;BME280;11115;46.038;14.612;2023-09-19T11:28:32;98476.69;;;19.83;100.00
21902;BME280;11115;46.038;14.612;2023-09-19T11:31:44;98469.88;;;19.65;100.00
21902;BME280;11115;46.038;14.612;2023-09-19T11:34:38;98477.34;;;19.77;100.00
21902;BME280;11115;46.038;14.612;2023-09-19T11:40:10;98457.84;;;19.84;100.00
21902;BME280;11115;46.038;14.612;2023-09-19T11:42:58;98454.09;;;19.76;100.00
21902;BME280;11115;46.038;14.612;2023-09-19T11:46:00;98455.56;;;19.70;100.00
21902;BME280;11115;46.038;14.612;2023-09-19T11:48:32;98451.28;;;19.57;100.00
21902;BME280;11115;46.038;14.612;2023-09-19T11:51:21;98458.94;;;19.98;100.00
21902;BME280;11115;46.038;14.612;2023-09-19T11:54:03;98451.16;;;20.34;100.00
21902;BME280;11115;46.038;14.612;2023-09-19T11:56:40;98448.47;;;20.87;100.00
21902;BME280;11115;46.038;14.612;2023-09-19T11:59:32;98439.91;;;21.33;100.00
21902;BME280;11115;46.038;14.612;2023-09-19T12:05:07;98430.66;;;20.79;100.00
21902;BME280;11115;46.038;14.612;2023-09-19T12:07:44;98438.88;;;20.91;100.00
21902;BME280;11115;46.038;14.612;2023-09-19T12:10:27;98437.22;;;20.87;100.00
21902;BME280;11115;46.038;14.612;2023-09-19T12:13:04;98426.66;;;20.80;100.00
21902;BME280;11115;46.038;14.612;2023-09-19T12:15:37;98431.31;;;20.96;100.00
21902;BME280;11115;46.038;14.612;2023-09-19T12:18:30;98430.75;;;20.60;100.00
21902;BME280;11115;46.038;14.612;2023-09-19T12:21:07;98409.09;;;20.87;100.00
21902;BME280;11115;46.038;14.612;2023-09-19T12:23:40;98443.63;;;21.14;100.00
21902;BME280;11115;46.038;14.612;2023-09-19T12:26:12;98440.00;;;21.13;100.00
21902;BME280;11115;46.038;14.612;2023-09-19T12:28:43;98441.00;;;20.98;100.00
21902;BME280;11115;46.038;14.612;2023-09-19T12:31:18;98443.50;;;20.54;100.00
21902;BME280;11115;46.038;14.612;2023-09-19T12:33:58;98448.22;;;20.73;100.00
21902;BME280;11115;46.038;14.612;2023-09-19T12:36:36;98450.13;;;20.91;100.00
21902;BME280;11115;46.038;14.612;2023-09-19T12:39:07;98444.78;;;20.83;100.00
21902;BME280;11115;46.038;14.612;2023-09-19T12:41:43;98449.53;;;20.79;100.00
21902;BME280;11115;46.038;14.612;2023-09-19T12:44:25;98453.66;;;20.85;100.00
21902;BME280;11115;46.038;14.612;2023-09-19T12:47:11;98449.38;;;20.95;100.00
21902;BME280;11115;46.038;14.612;2023-09-19T12:52:47;98427.41;;;23.44;100.00
21902;BME280;11115;46.038;14.612;2023-09-19T12:55:28;98441.91;;;24.55;100.00
21902;BME280;11115;46.038;14.612;2023-09-19T12:58:20;98443.03;;;24.21;100.00
21902;BME280;11115;46.038;14.612;2023-09-19T13:00:55;98455.00;;;23.07;100.00
21902;BME280;11115;46.038;14.612;2023-09-19T13:03:32;98450.19;;;23.11;100.00
21902;BME280;11115;46.038;14.612;2023-09-19T13:06:08;98425.06;;;22.91;100.00
21902;BME280;11115;46.038;14.612;2023-09-19T13:08:44;98387.03;;;22.71;100.00
21902;BME280;11115;46.038;14.612;2023-09-19T13:11:36;98444.88;;;23.68;100.00
21902;BME280;11115;46.038;14.612;2023-09-19T13:14:24;98435.47;;;23.39;100.00
21902;BME280;11115;46.038;14.612;2023-09-19T13:17:10;98435.59;;;23.60;100.00
21902;BME280;11115;46.038;14.612;2023-09-19T13:19:51;98429.41;;;23.37;100.00
21902;BME280;11115;46.038;14.612;2023-09-19T13:22:40;98424.88;;;23.21;100.00
21902;BME280;11115;46.038;14.612;2023-09-19T13:25:22;98410.78;;;23.28;100.00
21902;BME280;11115;46.038;14.612;2023-09-19T13:28:06;98418.06;;;23.33;100.00
21902;BME280;11115;46.038;14.612;2023-09-19T13:30:40;98418.25;;;23.61;100.00
21902;BME280;11115;46.038;14.612;2023-09-19T13:33:12;98421.94;;;23.87;100.00
21902;BME280;11115;46.038;14.612;2023-09-19T13:35:50;98432.84;;;23.81;100.00
21902;BME280;11115;46.038;14.612;2023-09-19T13:38:32;98431.22;;;23.84;100.00
21902;BME280;11115;46.038;14.612;2023-09-19T13:41:10;98428.47;;;24.02;100.00
21902;BME280;11115;46.038;14.612;2023-09-19T13:43:50;98423.50;;;23.70;100.00
21902;BME280;11115;46.038;14.612;2023-09-19T13:46:19;98422.97;;;23.43;100.00
21902;BME280;11115;46.038;14.612;2023-09-19T13:48:56;98441.44;;;23.26;100.00
21902;BME280;11115;46.038;14.612;2023-09-19T13:51:37;98429.13;;;23.63;100.00
21902;BME280;11115;46.038;14.612;2023-09-19T13:54:14;98423.78;;;23.40;100.00
21902;BME280;11115;46.038;14.612;2023-09-19T13:56:51;98422.97;;;23.43;100.00
21902;BME280;11115;46.038;14.612;2023-09-19T13:59:23;98423.88;;;23.58;100.00
21902;BME280;11115;46.038;14.612;2023-09-19T14:01:57;98414.53;;;23.50;100.00
21902;BME280;11115;46.038;14.612;2023-09-19T14:04:38;98422.53;;;23.38;100.00
21902;BME280;11115;46.038;14.612;2023-09-19T14:07:09;98414.00;;;23.27;100.00
21902;BME280;11115;46.038;14.612;2023-09-19T14:09:51;98415.25;;;23.33;100.00